Bowmanville, Canada
Current Conditions -  °F | °C
As of 5:00 AM on Sunday 21 Dec 2014 (Local Time) from CYOO Reporting Station
Overcast Overcast  
Wind Chill: 27°   Ceiling: 9000
Heat Index: 27°   Visibility: 9mi
Dew Point: 25°   Wind: 3mph
Humidity: 93%   Direction: 350°N
Pressure: 30.28"   Gusts: NA
Location:  43.91°N, 78.69°W
Report Text: CYOO 211000Z AUTO 35003KT 9SM OVC090 M03/M04 A3028 RMK SLP260
Loading
Personal Weather Stations






























Interactive Weather Map New forecast layout! Learn more

10-Day Weather Forecast

Advertisements
Track Severe Weather on mobile